Time;durP1;ratioP1;P1;durP2;ratioP2;P2;SDS_P1;SDS_P2;PMS_P1;PMS_P2;Temp;Humidity;BMP_temperature;BMP_pressure;BME280_temperature;BME280_humidity;BME280_pressure;Samples;Min_cycle;Max_cycle;Signal;HPM_P1;HPM_P2
2023/12/04 00:01:30;;;;;;;32.13;15.45;;;1.40;99.90;;;;;;4156618;28;20038;-75
2023/12/04 00:03:31;;;;;;;27.52;14.73;;;1.40;99.90;;;;;;4137172;28;20935;-75
2023/12/04 00:05:31;;;;;;;29.05;15.48;;;1.40;99.90;;;;;;4145467;28;20038;-74
2023/12/04 00:07:32;;;;;;;27.33;14.50;;;1.40;99.90;;;;;;4165504;28;20034;-75
2023/12/04 00:09:33;;;;;;;27.92;14.98;;;1.40;99.90;;;;;;4151899;28;20107;-75
2023/12/04 00:11:33;;;;;;;29.10;13.38;;;1.50;99.90;;;;;;4154378;28;20109;-74
2023/12/04 00:13:34;;;;;;;27.73;13.75;;;1.50;99.90;;;;;;4168977;28;20499;-74
2023/12/04 00:15:35;;;;;;;28.20;14.60;;;1.50;99.90;;;;;;4169213;28;20509;-74
2023/12/04 00:17:39;;;;;;;28.20;14.55;;;1.50;99.90;;;;;;4154930;28;20041;-74
2023/12/04 00:19:40;;;;;;;26.52;14.00;;;1.50;99.90;;;;;;4172995;28;20116;-75
2023/12/04 00:21:40;;;;;;;25.55;13.48;;;1.50;99.90;;;;;;4157549;28;20093;-76
2023/12/04 00:23:41;;;;;;;25.90;13.70;;;1.50;99.90;;;;;;4151963;28;20036;-75
2023/12/04 00:25:42;;;;;;;26.30;13.55;;;1.50;99.90;;;;;;4128510;28;20093;-74
2023/12/04 00:27:42;;;;;;;28.98;14.30;;;1.50;99.90;;;;;;4159944;28;20053;-74
2023/12/04 00:29:43;;;;;;;24.30;13.23;;;1.50;99.90;;;;;;4173040;28;20037;-75
2023/12/04 00:31:43;;;;;;;25.92;13.40;;;1.60;99.90;;;;;;4155469;28;20312;-74
2023/12/04 00:33:44;;;;;;;26.92;13.38;;;1.60;99.90;;;;;;4135782;28;20061;-75
2023/12/04 00:35:44;;;;;;;23.85;13.98;;;1.50;99.90;;;;;;4170975;28;20036;-74
2023/12/04 00:37:45;;;;;;;27.23;14.15;;;1.50;99.90;;;;;;4153274;28;20143;-74
2023/12/04 00:39:46;;;;;;;23.38;13.07;;;1.50;99.90;;;;;;4153403;28;20053;-76
2023/12/04 00:41:46;;;;;;;26.05;13.02;;;1.60;99.90;;;;;;4155540;28;20105;-74
2023/12/04 00:43:47;;;;;;;22.25;12.80;;;1.60;99.90;;;;;;4172630;28;20029;-75
2023/12/04 00:45:47;;;;;;;25.67;14.20;;;1.60;99.90;;;;;;4167124;28;20060;-76
2023/12/04 00:47:48;;;;;;;25.83;11.90;;;1.60;99.90;;;;;;4171588;28;20036;-74
2023/12/04 00:49:48;;;;;;;25.67;12.80;;;1.60;99.90;;;;;;4166558;28;20402;-74
2023/12/04 00:51:49;;;;;;;24.55;13.20;;;1.60;99.90;;;;;;4163954;28;20458;-74
2023/12/04 00:53:50;;;;;;;27.15;12.95;;;1.60;99.90;;;;;;4149351;28;20060;-74
2023/12/04 00:55:50;;;;;;;23.73;13.23;;;1.70;99.90;;;;;;4174038;28;20567;-75
2023/12/04 00:57:51;;;;;;;23.73;12.68;;;1.60;99.90;;;;;;4172636;28;20348;-74
2023/12/04 00:59:51;;;;;;;25.05;12.63;;;1.60;99.90;;;;;;4153703;28;20427;-74
2023/12/04 01:01:52;;;;;;;24.77;12.77;;;1.70;99.90;;;;;;4149915;28;20590;-76
2023/12/04 01:03:53;;;;;;;22.52;13.07;;;1.60;99.90;;;;;;4170002;28;20448;-77
2023/12/04 01:05:53;;;;;;;23.88;12.43;;;1.60;99.90;;;;;;4168613;28;20513;-77
2023/12/04 01:07:54;;;;;;;26.48;12.65;;;1.60;99.90;;;;;;4167710;28;20469;-77
2023/12/04 01:09:54;;;;;;;23.73;12.15;;;1.60;99.90;;;;;;4167498;28;20033;-77
2023/12/04 01:11:55;;;;;;;22.67;11.82;;;1.60;99.90;;;;;;4149996;28;20128;-77
2023/12/04 01:13:56;;;;;;;25.13;12.07;;;1.60;99.90;;;;;;4168040;28;20033;-77
2023/12/04 01:15:56;;;;;;;23.35;12.05;;;1.60;99.90;;;;;;4165766;28;20036;-77
2023/12/04 01:17:57;;;;;;;22.10;12.02;;;1.60;99.90;;;;;;4169220;28;20068;-77
2023/12/04 01:19:57;;;;;;;24.15;12.23;;;1.60;99.90;;;;;;4173597;28;20095;-77
2023/12/04 01:21:58;;;;;;;21.98;12.10;;;1.60;99.90;;;;;;4171750;28;20041;-77
2023/12/04 01:23:59;;;;;;;22.58;12.25;;;1.60;99.90;;;;;;4170518;28;20430;-77
2023/12/04 01:25:59;;;;;;;19.63;11.02;;;1.60;99.90;;;;;;4165033;28;20034;-77
2023/12/04 01:28:00;;;;;;;21.33;11.80;;;1.60;99.90;;;;;;4167030;28;20033;-77
2023/12/04 01:30:01;;;;;;;21.90;11.73;;;1.70;99.90;;;;;;4170398;28;20045;-77
2023/12/04 01:32:01;;;;;;;19.40;10.63;;;1.70;99.90;;;;;;4168980;28;20044;-77
2023/12/04 01:34:02;;;;;;;22.23;11.38;;;1.70;99.90;;;;;;4169922;28;20481;-77
2023/12/04 01:36:03;;;;;;;20.33;10.70;;;1.70;99.90;;;;;;4163607;28;20688;-77
2023/12/04 01:38:04;;;;;;;24.15;11.48;;;1.80;99.90;;;;;;4168743;28;20084;-77
2023/12/04 01:40:06;;;;;;;22.35;11.73;;;1.70;99.90;;;;;;4153665;28;20026;-77
2023/12/04 01:42:07;;;;;;;21.38;10.98;;;1.70;99.90;;;;;;4168624;28;20036;-77
2023/12/04 01:44:08;;;;;;;21.88;11.18;;;1.70;99.90;;;;;;4151164;28;20092;-77
2023/12/04 01:46:09;;;;;;;18.20;10.93;;;1.70;99.90;;;;;;4133291;28;20034;-77
2023/12/04 01:48:13;;;;;;;21.10;11.38;;;1.70;99.90;;;;;;4151368;28;20033;-77
2023/12/04 01:50:14;;;;;;;19.90;11.25;;;1.70;99.90;;;;;;4170600;28;20094;-77
2023/12/04 01:52:16;;;;;;;20.33;12.10;;;1.70;99.90;;;;;;4151753;28;20037;-77
2023/12/04 01:54:17;;;;;;;18.27;10.73;;;1.70;99.90;;;;;;4166589;28;20515;-78
2023/12/04 01:56:19;;;;;;;22.98;12.05;;;1.70;99.90;;;;;;4161877;28;20032;-77
2023/12/04 01:58:19;;;;;;;19.03;10.73;;;1.70;99.90;;;;;;4169094;28;20099;-77
2023/12/04 02:00:20;;;;;;;16.80;9.75;;;1.70;99.90;;;;;;4151152;28;20499;-77
2023/12/04 02:02:21;;;;;;;18.83;10.05;;;1.70;99.90;;;;;;4170610;28;20034;-76
2023/12/04 02:04:22;;;;;;;18.83;10.30;;;1.70;99.90;;;;;;4173645;28;20025;-77
2023/12/04 02:06:22;;;;;;;20.75;11.00;;;1.70;99.90;;;;;;4167207;28;20526;-76
2023/12/04 02:08:24;;;;;;;20.75;10.88;;;1.70;99.90;;;;;;4165752;28;20033;-77
2023/12/04 02:10:24;;;;;;;19.27;10.82;;;1.70;99.90;;;;;;4169082;28;20041;-77
2023/12/04 02:12:25;;;;;;;18.88;10.23;;;1.70;99.90;;;;;;4168302;28;20494;-78
2023/12/04 02:14:26;;;;;;;17.70;10.45;;;1.70;99.90;;;;;;4162229;28;20037;-78
2023/12/04 02:16:29;;;;;;;17.10;9.85;;;1.70;99.90;;;;;;4169703;28;20029;-78
2023/12/04 02:18:30;;;;;;;16.40;9.40;;;1.70;99.90;;;;;;4172833;28;20495;-78
2023/12/04 02:20:33;;;;;;;19.42;10.13;;;1.70;99.90;;;;;;4148063;28;20129;-78
2023/12/04 02:22:34;;;;;;;18.60;10.52;;;1.70;99.90;;;;;;4170709;28;20096;-78
2023/12/04 02:24:35;;;;;;;19.25;10.75;;;1.70;99.90;;;;;;4174325;28;20036;-78
2023/12/04 02:26:45;;;;;;;17.60;9.85;;;1.70;99.90;;;;;;4162779;28;20079;-78
2023/12/04 02:28:51;;;;;;;19.75;10.48;;;1.80;99.90;;;;;;4169763;28;20040;-77
2023/12/04 02:30:52;;;;;;;20.10;10.38;;;1.70;99.90;;;;;;4144677;28;20029;-78
2023/12/04 02:32:54;;;;;;;18.67;10.25;;;1.80;99.90;;;;;;4168529;28;20029;-78
2023/12/04 02:34:55;;;;;;;19.88;9.88;;;1.70;99.90;;;;;;4168344;28;20045;-78
2023/12/04 02:36:57;;;;;;;16.90;9.57;;;1.70;99.90;;;;;;4163319;28;20037;-77
2023/12/04 02:38:59;;;;;;;19.80;10.18;;;1.70;99.90;;;;;;4164176;28;20555;-78
2023/12/04 02:40:59;;;;;;;19.20;10.18;;;1.70;99.90;;;;;;4166584;28;20033;-78
2023/12/04 02:43:00;;;;;;;19.83;10.43;;;1.70;99.90;;;;;;4135127;28;20472;-78
2023/12/04 02:45:00;;;;;;;17.05;9.52;;;1.70;99.90;;;;;;4156774;28;20545;-78
2023/12/04 02:47:01;;;;;;;16.08;9.90;;;1.70;99.90;;;;;;4152000;28;20453;-78
2023/12/04 02:49:01;;;;;;;18.63;10.07;;;1.70;99.90;;;;;;4169067;28;20049;-77
2023/12/04 02:51:03;;;;;;;18.00;8.70;;;1.70;99.90;;;;;;4152636;28;20049;-77
2023/12/04 02:53:04;;;;;;;18.40;9.85;;;1.70;99.90;;;;;;4166791;28;20057;-78
2023/12/04 02:55:05;;;;;;;20.00;10.50;;;1.70;99.90;;;;;;4172787;28;20036;-78
2023/12/04 02:57:05;;;;;;;18.48;10.48;;;1.70;99.90;;;;;;4148792;28;20047;-78
2023/12/04 02:59:06;;;;;;;17.92;9.43;;;1.70;99.90;;;;;;4168396;28;20553;-78
2023/12/04 03:01:07;;;;;;;15.68;9.00;;;1.80;99.90;;;;;;4167860;28;20033;-78
2023/12/04 03:03:07;;;;;;;16.52;8.82;;;1.80;99.90;;;;;;4172967;28;20438;-78
2023/12/04 03:05:08;;;;;;;19.58;9.98;;;1.80;99.90;;;;;;4153180;28;20030;-77
2023/12/04 03:07:09;;;;;;;18.42;10.13;;;1.70;99.90;;;;;;4170668;28;20041;-78
2023/12/04 03:09:10;;;;;;;19.88;10.20;;;1.70;99.90;;;;;;4164905;28;20068;-78
2023/12/04 03:11:10;;;;;;;18.88;10.52;;;1.80;99.90;;;;;;4133433;28;20100;-78
2023/12/04 03:13:11;;;;;;;17.27;9.30;;;1.80;99.90;;;;;;4168295;28;20401;-78
2023/12/04 03:15:12;;;;;;;17.05;8.60;;;1.80;99.90;;;;;;4170114;28;20461;-78
2023/12/04 03:17:13;;;;;;;17.37;9.63;;;1.80;99.90;;;;;;4168962;28;20044;-78
2023/12/04 03:19:14;;;;;;;18.55;9.98;;;1.80;99.90;;;;;;4169540;28;20045;-77
2023/12/04 03:21:14;;;;;;;15.00;8.80;;;1.80;99.90;;;;;;4171411;28;20082;-78
2023/12/04 03:23:15;;;;;;;17.10;9.20;;;1.80;99.90;;;;;;4154071;28;20542;-77
2023/12/04 03:25:15;;;;;;;16.98;9.43;;;1.80;99.90;;;;;;4170253;28;20049;-77
2023/12/04 03:27:16;;;;;;;13.80;8.27;;;1.80;99.90;;;;;;4165007;28;20037;-77
2023/12/04 03:29:17;;;;;;;16.73;9.50;;;1.80;99.90;;;;;;4138020;28;20042;-77
2023/12/04 03:31:17;;;;;;;16.60;9.88;;;1.80;99.90;;;;;;4171463;28;20118;-77
2023/12/04 03:33:18;;;;;;;15.50;8.75;;;1.80;99.90;;;;;;4153501;28;20061;-77
2023/12/04 03:35:18;;;;;;;16.10;8.15;;;1.80;99.90;;;;;;4150991;28;20474;-77
2023/12/04 03:37:19;;;;;;;15.25;9.18;;;1.80;99.90;;;;;;4151268;28;20569;-77
2023/12/04 03:39:19;;;;;;;15.65;8.35;;;1.90;99.90;;;;;;4166992;28;20517;-77
2023/12/04 03:41:22;;;;;;;14.30;8.70;;;1.80;99.90;;;;;;4153338;28;20749;-77
2023/12/04 03:43:22;;;;;;;14.88;8.13;;;1.90;99.90;;;;;;4169898;28;20066;-77
2023/12/04 03:45:23;;;;;;;16.33;8.40;;;1.80;99.90;;;;;;4170431;28;20487;-76
2023/12/04 03:47:25;;;;;;;16.05;9.38;;;1.90;99.90;;;;;;4152480;28;20037;-76
2023/12/04 03:49:25;;;;;;;17.20;8.98;;;1.80;99.90;;;;;;4168362;28;20037;-77
2023/12/04 03:51:26;;;;;;;17.05;9.18;;;1.90;99.90;;;;;;4151557;28;20067;-77
2023/12/04 03:53:27;;;;;;;17.10;9.23;;;1.80;99.90;;;;;;4155210;28;20032;-76
2023/12/04 03:55:27;;;;;;;17.55;9.73;;;1.80;99.90;;;;;;4152041;28;20079;-77
2023/12/04 03:57:28;;;;;;;15.40;8.82;;;1.80;99.90;;;;;;4159424;28;20041;-77
2023/12/04 03:59:28;;;;;;;16.10;9.25;;;1.80;99.90;;;;;;4171146;28;20049;-77
2023/12/04 04:01:29;;;;;;;18.17;8.90;;;1.80;99.90;;;;;;4170738;28;20446;-77
2023/12/04 04:03:30;;;;;;;14.20;8.48;;;1.80;99.90;;;;;;4150306;28;20053;-77
2023/12/04 04:05:30;;;;;;;16.63;9.27;;;1.80;99.90;;;;;;4168161;28;20041;-77
2023/12/04 04:07:31;;;;;;;16.58;8.82;;;1.80;99.90;;;;;;4166469;28;20022;-77
2023/12/04 04:09:31;;;;;;;17.38;9.60;;;1.80;99.90;;;;;;4152204;28;20453;-77
2023/12/04 04:11:32;;;;;;;15.45;7.78;;;1.80;99.90;;;;;;4148461;28;20092;-77
2023/12/04 04:13:33;;;;;;;16.25;8.27;;;1.80;99.90;;;;;;4164158;28;20446;-77
2023/12/04 04:15:33;;;;;;;14.60;8.90;;;1.80;99.90;;;;;;4170791;28;20041;-77
2023/12/04 04:17:34;;;;;;;15.00;8.63;;;1.80;99.90;;;;;;4165744;28;20038;-76
2023/12/04 04:19:34;;;;;;;14.93;8.13;;;1.80;99.90;;;;;;4169009;28;20100;-77
2023/12/04 04:21:39;;;;;;;17.98;9.55;;;1.70;99.90;;;;;;4148002;28;20407;-77
2023/12/04 04:23:40;;;;;;;14.93;8.13;;;1.80;99.90;;;;;;4157174;28;20462;-76
2023/12/04 04:25:41;;;;;;;15.48;8.43;;;1.80;99.90;;;;;;4150251;28;20042;-77
2023/12/04 04:27:41;;;;;;;15.40;8.50;;;1.80;99.90;;;;;;4170396;28;20028;-77
2023/12/04 04:29:42;;;;;;;15.38;8.60;;;1.80;99.90;;;;;;4151861;28;20095;-77
2023/12/04 04:31:43;;;;;;;13.18;7.60;;;1.80;99.90;;;;;;4147103;28;20034;-76
2023/12/04 04:33:43;;;;;;;15.55;8.60;;;1.80;99.90;;;;;;4166036;28;20033;-77
2023/12/04 04:35:44;;;;;;;13.18;7.43;;;1.80;99.90;;;;;;4167271;28;20057;-77
2023/12/04 04:37:44;;;;;;;11.48;7.30;;;1.90;99.90;;;;;;4153713;28;20044;-76
2023/12/04 04:39:45;;;;;;;16.10;8.30;;;1.90;99.90;;;;;;4151107;28;20049;-77
2023/12/04 04:41:46;;;;;;;13.68;7.68;;;1.90;99.90;;;;;;4164339;28;20030;-77
2023/12/04 04:43:46;;;;;;;15.35;7.88;;;1.80;99.90;;;;;;4166528;28;22114;-77
2023/12/04 04:45:47;;;;;;;14.05;8.07;;;1.80;99.90;;;;;;4152259;28;20045;-76
2023/12/04 04:47:48;;;;;;;14.82;8.45;;;1.90;99.90;;;;;;4174190;28;20021;-77
2023/12/04 04:49:48;;;;;;;14.43;7.88;;;1.80;99.90;;;;;;4171671;28;20497;-77
2023/12/04 04:51:49;;;;;;;14.38;7.78;;;1.80;99.90;;;;;;4165799;28;20567;-76
2023/12/04 04:53:50;;;;;;;16.13;7.75;;;1.80;99.90;;;;;;4131897;28;20031;-77
2023/12/04 04:55:50;;;;;;;13.48;7.90;;;1.80;99.90;;;;;;4163469;28;20037;-77
2023/12/04 04:57:51;;;;;;;18.25;8.65;;;1.80;99.90;;;;;;4168201;28;20087;-77
2023/12/04 04:59:51;;;;;;;12.00;7.60;;;1.80;99.90;;;;;;4170074;28;20041;-76
2023/12/04 05:01:52;;;;;;;14.57;8.55;;;1.80;99.90;;;;;;4132486;28;20031;-77
2023/12/04 05:03:52;;;;;;;13.40;7.55;;;1.80;99.90;;;;;;4166699;28;20041;-77
2023/12/04 05:05:53;;;;;;;14.68;8.43;;;1.80;99.90;;;;;;4153285;28;20040;-77
2023/12/04 05:07:54;;;;;;;13.45;7.53;;;1.80;99.90;;;;;;4153611;28;20041;-76
2023/12/04 05:09:54;;;;;;;13.25;7.80;;;1.80;99.90;;;;;;4171750;28;20033;-77
2023/12/04 05:11:55;;;;;;;15.02;8.23;;;1.80;99.90;;;;;;4153946;28;20112;-77
2023/12/04 05:13:55;;;;;;;14.50;8.38;;;1.80;99.90;;;;;;4174420;28;20082;-77
2023/12/04 05:15:56;;;;;;;13.10;7.40;;;1.80;99.90;;;;;;4153277;28;20033;-77
2023/12/04 05:17:56;;;;;;;16.00;8.25;;;1.80;99.90;;;;;;4172664;28;20041;-77
2023/12/04 05:19:57;;;;;;;13.60;7.57;;;1.80;99.90;;;;;;4167487;28;20558;-77
2023/12/04 05:21:57;;;;;;;12.82;7.03;;;1.80;99.90;;;;;;4154109;28;20513;-77
2023/12/04 05:23:58;;;;;;;13.80;7.75;;;1.80;99.90;;;;;;4161864;28;20124;-77
2023/12/04 05:25:59;;;;;;;11.65;7.13;;;1.80;99.90;;;;;;4164163;28;20067;-77
2023/12/04 05:27:59;;;;;;;12.60;7.30;;;1.80;99.90;;;;;;4165523;28;20045;-76
2023/12/04 05:30:00;;;;;;;14.20;7.47;;;1.80;99.90;;;;;;4168843;28;20410;-78
2023/12/04 05:32:00;;;;;;;13.85;7.68;;;1.90;99.90;;;;;;4173938;28;20387;-77
2023/12/04 05:34:01;;;;;;;14.52;7.97;;;1.90;99.90;;;;;;4162698;28;20384;-77
2023/12/04 05:36:02;;;;;;;14.23;7.78;;;1.90;99.90;;;;;;4155319;28;20060;-77
2023/12/04 05:38:02;;;;;;;15.25;6.95;;;1.90;99.90;;;;;;4156673;28;20530;-77
2023/12/04 05:40:04;;;;;;;13.98;8.25;;;1.90;99.90;;;;;;4172930;28;20040;-77
2023/12/04 05:42:05;;;;;;;13.95;8.00;;;1.90;99.90;;;;;;4163970;28;20096;-77
2023/12/04 05:44:06;;;;;;;17.25;8.23;;;1.80;99.90;;;;;;4150508;28;20526;-75
2023/12/04 05:46:06;;;;;;;13.68;8.10;;;1.80;99.90;;;;;;4151993;28;20495;-75
2023/12/04 05:48:07;;;;;;;14.63;8.02;;;1.80;99.90;;;;;;4173586;28;20112;-75
2023/12/04 05:50:08;;;;;;;13.93;7.85;;;1.80;99.90;;;;;;4132900;28;20194;-76
2023/12/04 05:52:08;;;;;;;14.90;8.15;;;1.80;99.90;;;;;;4149872;28;20042;-77
2023/12/04 05:54:09;;;;;;;14.50;8.40;;;1.90;99.90;;;;;;4154391;28;20045;-75
2023/12/04 05:56:10;;;;;;;15.27;7.70;;;1.90;99.90;;;;;;4163116;28;20040;-76
2023/12/04 05:58:11;;;;;;;13.45;7.97;;;1.80;99.90;;;;;;4168887;28;20045;-75
2023/12/04 06:00:12;;;;;;;16.13;8.88;;;1.80;99.90;;;;;;4170240;28;20467;-75
2023/12/04 06:02:15;;;;;;;17.65;9.07;;;1.80;99.90;;;;;;4170453;28;20037;-75
2023/12/04 06:04:15;;;;;;;12.93;7.32;;;1.80;99.90;;;;;;4152048;28;20037;-76
2023/12/04 06:06:16;;;;;;;14.07;8.10;;;1.90;99.90;;;;;;4168163;28;20044;-76
2023/12/04 06:08:17;;;;;;;12.68;7.60;;;1.80;99.90;;;;;;4171016;28;20402;-74
2023/12/04 06:10:18;;;;;;;15.02;8.60;;;1.90;99.90;;;;;;4169383;28;20041;-76
2023/12/04 06:12:18;;;;;;;14.40;8.57;;;1.80;99.90;;;;;;4168329;28;20036;-76
2023/12/04 06:14:19;;;;;;;14.55;8.35;;;1.80;99.90;;;;;;4171240;28;20037;-76
2023/12/04 06:16:19;;;;;;;15.32;8.43;;;1.80;99.90;;;;;;4152107;28;20450;-76
2023/12/04 06:18:23;;;;;;;12.05;7.60;;;1.90;99.90;;;;;;4172551;28;20394;-76
2023/12/04 06:20:23;;;;;;;15.73;9.02;;;1.90;99.90;;;;;;4149451;28;20048;-76
2023/12/04 06:22:24;;;;;;;15.73;9.15;;;1.90;99.90;;;;;;4147902;28;20033;-76
2023/12/04 06:24:25;;;;;;;15.32;8.65;;;1.90;99.90;;;;;;4173766;28;20068;-76
2023/12/04 06:26:26;;;;;;;14.27;8.40;;;1.90;99.90;;;;;;4148040;28;20041;-76
2023/12/04 06:28:27;;;;;;;16.92;8.93;;;1.90;99.90;;;;;;4141344;28;20578;-75
2023/12/04 06:30:28;;;;;;;19.70;9.48;;;1.90;99.90;;;;;;4084794;28;21393;-76
2023/12/04 06:32:29;;;;;;;16.40;8.90;;;1.90;99.90;;;;;;4150505;28;20088;-77
2023/12/04 06:34:29;;;;;;;15.40;8.73;;;1.90;99.90;;;;;;4139897;28;20042;-76
2023/12/04 06:36:35;;;;;;;15.43;9.27;;;1.90;99.90;;;;;;4134089;28;20037;-76
2023/12/04 06:38:39;;;;;;;15.23;8.32;;;1.90;99.90;;;;;;4140673;28;20401;-74
2023/12/04 06:40:40;;;;;;;17.58;9.55;;;1.80;99.90;;;;;;4153915;28;20033;-75
2023/12/04 06:42:41;;;;;;;17.77;8.80;;;1.80;99.90;;;;;;4154179;28;20403;-75
2023/12/04 06:44:42;;;;;;;16.67;9.23;;;1.90;99.90;;;;;;4145932;28;20512;-75
2023/12/04 06:46:48;;;;;;;16.77;9.57;;;1.90;99.90;;;;;;4134931;28;20037;-75
2023/12/04 06:48:53;;;;;;;17.05;9.02;;;1.80;99.90;;;;;;4145724;28;20046;-75
2023/12/04 06:50:54;;;;;;;14.90;8.43;;;1.80;99.90;;;;;;4147011;28;20100;-75
2023/12/04 06:52:55;;;;;;;14.02;8.55;;;1.90;99.90;;;;;;4153175;28;20029;-76
2023/12/04 06:54:55;;;;;;;14.95;8.48;;;1.90;99.90;;;;;;4133476;28;20053;-75
2023/12/04 06:56:56;;;;;;;14.35;8.02;;;1.90;99.90;;;;;;4125829;28;20022;-77
2023/12/04 06:58:56;;;;;;;15.57;8.93;;;1.90;99.90;;;;;;4145349;28;20079;-75
2023/12/04 07:00:57;;;;;;;12.65;8.05;;;1.90;99.90;;;;;;4148557;28;20399;-78
2023/12/04 07:02:57;;;;;;;18.55;10.10;;;2.00;99.90;;;;;;4149858;28;20513;-71
2023/12/04 07:04:58;;;;;;;15.32;9.07;;;1.90;99.90;;;;;;4152510;28;20081;-71
2023/12/04 07:07:04;;;;;;;15.20;8.73;;;1.90;99.90;;;;;;4148771;28;20033;-72
2023/12/04 07:09:08;;;;;;;17.85;10.02;;;1.90;99.90;;;;;;4152444;28;20071;-74
2023/12/04 07:11:09;;;;;;;16.52;9.20;;;2.00;99.90;;;;;;4149201;28;20377;-71
2023/12/04 07:13:09;;;;;;;17.77;9.98;;;2.00;99.90;;;;;;4154849;28;20041;-72
2023/12/04 07:15:11;;;;;;;19.25;10.80;;;2.00;99.90;;;;;;4138957;28;20456;-72
2023/12/04 07:17:11;;;;;;;16.67;9.10;;;2.00;99.90;;;;;;4151933;28;20529;-71
2023/12/04 07:19:14;;;;;;;18.48;9.48;;;2.10;99.90;;;;;;4144758;28;20045;-71
2023/12/04 07:21:15;;;;;;;16.67;9.70;;;2.00;99.90;;;;;;4145986;28;20491;-72
2023/12/04 07:23:15;;;;;;;17.98;9.68;;;2.00;99.90;;;;;;4144196;28;20034;-71
2023/12/04 07:25:16;;;;;;;17.27;9.48;;;2.00;99.90;;;;;;4120985;28;20051;-71
2023/12/04 07:27:17;;;;;;;16.48;9.80;;;2.10;99.90;;;;;;4133764;28;20113;-72
2023/12/04 07:29:17;;;;;;;16.83;9.23;;;2.00;99.90;;;;;;4131133;28;20061;-74
2023/12/04 07:31:18;;;;;;;17.92;10.23;;;2.00;99.90;;;;;;4136950;28;20064;-73
2023/12/04 07:33:18;;;;;;;19.25;10.27;;;2.00;99.90;;;;;;4151105;28;20033;-71
2023/12/04 07:35:19;;;;;;;20.40;10.75;;;2.00;99.90;;;;;;4141288;28;20037;-72
2023/12/04 07:37:19;;;;;;;18.05;10.38;;;2.00;99.90;;;;;;4140613;28;20045;-72
2023/12/04 07:39:20;;;;;;;17.55;10.10;;;2.00;99.90;;;;;;4146533;28;20038;-72
2023/12/04 07:41:21;;;;;;;16.15;9.70;;;2.00;99.90;;;;;;4142773;28;20032;-71
2023/12/04 07:43:22;;;;;;;17.35;10.23;;;2.00;99.90;;;;;;4142212;28;20034;-71
2023/12/04 07:45:23;;;;;;;22.20;10.07;;;2.00;99.90;;;;;;4142193;28;20512;-72
2023/12/04 07:47:24;;;;;;;19.73;10.50;;;2.00;99.90;;;;;;4139120;28;20161;-72
2023/12/04 07:49:25;;;;;;;18.92;10.82;;;2.00;99.90;;;;;;4135278;28;20042;-72
2023/12/04 07:51:25;;;;;;;19.23;10.30;;;2.00;99.90;;;;;;4140439;28;20105;-72
2023/12/04 07:53:26;;;;;;;17.42;9.90;;;2.00;99.90;;;;;;4140955;28;20038;-71
2023/12/04 07:55:26;;;;;;;17.77;9.95;;;2.10;99.90;;;;;;4136395;28;20034;-71
2023/12/04 07:57:27;;;;;;;17.98;9.70;;;2.00;99.90;;;;;;4134738;28;20066;-72
2023/12/04 07:59:28;;;;;;;20.23;10.52;;;2.10;99.90;;;;;;4138143;28;20427;-71
2023/12/04 08:01:28;;;;;;;18.52;10.00;;;2.10;99.90;;;;;;4140645;28;20529;-71
2023/12/04 08:03:29;;;;;;;18.48;10.23;;;2.10;99.90;;;;;;4142277;28;20407;-78
2023/12/04 08:05:31;;;;;;;18.63;10.40;;;2.10;99.90;;;;;;4142328;28;20041;-78
2023/12/04 08:07:32;;;;;;;;;;;2.00;99.90;;;;;;4135865;28;20057;-75
2023/12/04 08:09:32;;;;;;;17.23;9.15;;;2.10;99.90;;;;;;4134253;28;19913;-77
2023/12/04 08:11:34;;;;;;;17.58;9.35;;;2.10;99.90;;;;;;4157346;28;20029;-78
2023/12/04 08:13:35;;;;;;;17.13;9.60;;;2.10;99.90;;;;;;4142904;28;20034;-74
2023/12/04 08:15:35;;;;;;;18.45;9.77;;;2.10;99.90;;;;;;4153978;28;20561;-73
2023/12/04 08:17:36;;;;;;;18.42;9.27;;;2.10;99.90;;;;;;4154526;28;20492;-74
2023/12/04 08:19:37;;;;;;;16.92;8.77;;;2.10;99.90;;;;;;4134099;28;20495;-74
2023/12/04 08:21:38;;;;;;;15.55;9.68;;;2.10;99.90;;;;;;4139447;28;20068;-73
2023/12/04 08:23:39;;;;;;;16.60;9.70;;;2.20;99.90;;;;;;4137565;28;20038;-72
2023/12/04 08:25:39;;;;;;;17.95;9.13;;;2.10;99.90;;;;;;4153231;28;20068;-73
2023/12/04 08:27:40;;;;;;;15.80;8.88;;;2.20;99.90;;;;;;4152872;28;20403;-71
2023/12/04 08:29:41;;;;;;;19.27;8.93;;;2.20;99.90;;;;;;4153105;28;20037;-71
2023/12/04 08:31:41;;;;;;;15.90;9.02;;;2.30;99.90;;;;;;4155107;28;20045;-71
2023/12/04 08:33:42;;;;;;;15.68;8.93;;;2.30;99.90;;;;;;4156453;28;20032;-72
2023/12/04 08:35:43;;;;;;;15.20;8.55;;;2.30;99.90;;;;;;4154366;28;20033;-71
2023/12/04 08:37:44;;;;;;;15.32;8.88;;;2.30;99.90;;;;;;4153632;28;20562;-72
2023/12/04 08:39:45;;;;;;;16.05;8.88;;;2.40;99.90;;;;;;4152644;28;20084;-72
2023/12/04 08:41:47;;;;;;;14.05;7.90;;;2.40;99.90;;;;;;4137230;28;20161;-75
2023/12/04 08:43:47;;;;;;;15.65;8.70;;;2.40;99.90;;;;;;4156025;28;20503;-71
2023/12/04 08:45:48;;;;;;;13.73;8.55;;;2.40;99.90;;;;;;4154050;28;20044;-71
2023/12/04 08:47:49;;;;;;;16.30;8.45;;;2.40;99.90;;;;;;4156025;28;20494;-73
2023/12/04 08:49:49;;;;;;;17.52;9.27;;;2.40;99.90;;;;;;4153958;28;20563;-71
2023/12/04 08:51:52;;;;;;;17.50;8.48;;;2.40;99.90;;;;;;4155216;28;20087;-71
2023/12/04 08:53:53;;;;;;;;;;;2.40;99.90;;;;;;4154531;28;20506;-70
2023/12/04 08:55:53;;;;;;;16.65;7.53;;;2.40;99.90;;;;;;4153405;28;19910;-71
2023/12/04 08:57:54;;;;;;;14.60;7.85;;;2.40;99.90;;;;;;4155229;28;20041;-71
2023/12/04 08:59:54;;;;;;;15.75;8.05;;;2.40;99.90;;;;;;4152147;28;20568;-72
2023/12/04 09:01:55;;;;;;;14.98;8.02;;;2.40;99.90;;;;;;4153350;28;20030;-71
2023/12/04 09:03:56;;;;;;;13.13;8.02;;;2.40;99.90;;;;;;4136881;28;20042;-72
2023/12/04 09:05:57;;;;;;;13.43;7.75;;;2.40;99.90;;;;;;4136887;28;20125;-70
2023/12/04 09:07:57;;;;;;;15.45;7.78;;;2.50;99.90;;;;;;4155159;28;20044;-71
2023/12/04 09:09:59;;;;;;;12.25;6.97;;;2.50;99.90;;;;;;4153692;28;20041;-70
2023/12/04 09:11:59;;;;;;;16.60;7.33;;;2.50;99.90;;;;;;4152659;28;20034;-72
2023/12/04 09:14:00;;;;;;;13.35;7.13;;;2.50;99.90;;;;;;4150755;28;20391;-76
2023/12/04 09:16:01;;;;;;;13.20;7.47;;;2.60;99.90;;;;;;4125207;28;20604;-76
2023/12/04 09:18:02;;;;;;;14.88;7.88;;;2.60;99.90;;;;;;4150849;28;20041;-74
2023/12/04 09:20:05;;;;;;;15.65;7.95;;;2.60;99.90;;;;;;4151190;28;20515;-76
2023/12/04 09:22:06;;;;;;;11.10;6.57;;;2.60;99.90;;;;;;4153818;28;20116;-75
2023/12/04 09:24:06;;;;;;;12.98;6.80;;;2.60;99.90;;;;;;4135475;28;20577;-76
2023/12/04 09:26:07;;;;;;;13.02;7.22;;;2.70;99.90;;;;;;4151667;28;20530;-77
2023/12/04 09:28:07;;;;;;;11.27;6.70;;;2.70;99.90;;;;;;4150340;28;20037;-76
2023/12/04 09:30:08;;;;;;;14.25;7.13;;;2.70;99.90;;;;;;4147134;28;20038;-75
2023/12/04 09:32:12;;;;;;;16.40;7.68;;;2.70;99.90;;;;;;4152994;28;20075;-76
2023/12/04 09:34:13;;;;;;;13.77;7.05;;;2.70;99.90;;;;;;4152544;28;20038;-75
2023/12/04 09:36:13;;;;;;;13.55;7.70;;;2.70;99.90;;;;;;4150527;28;20050;-75
2023/12/04 09:38:14;;;;;;;12.70;7.45;;;2.70;99.90;;;;;;4151283;28;20052;-74
2023/12/04 09:40:15;;;;;;;13.23;7.20;;;2.70;99.90;;;;;;4150764;28;20541;-75
2023/12/04 09:42:18;;;;;;;10.63;6.47;;;2.70;99.90;;;;;;4125357;28;20046;-75
2023/12/04 09:44:20;;;;;;;11.93;7.10;;;2.70;99.90;;;;;;4154254;28;20049;-70
2023/12/04 09:46:21;;;;;;;14.77;7.88;;;2.70;99.90;;;;;;4151293;28;20065;-73
2023/12/04 09:48:26;;;;;;;10.65;6.55;;;2.80;99.90;;;;;;4153094;28;20052;-72
2023/12/04 09:50:27;;;;;;;12.38;6.95;;;2.80;99.90;;;;;;4152516;28;20902;-70
2023/12/04 09:52:28;;;;;;;12.18;7.03;;;2.80;99.90;;;;;;4153867;28;20046;-70
2023/12/04 09:54:29;;;;;;;13.10;7.90;;;2.70;99.90;;;;;;4153452;28;20499;-70
2023/12/04 09:56:33;;;;;;;10.68;6.35;;;2.80;99.90;;;;;;4136437;28;20118;-71
2023/12/04 09:58:39;;;;;;;11.98;6.68;;;2.80;99.90;;;;;;4153990;28;20050;-72
2023/12/04 10:00:42;;;;;;;12.43;6.53;;;2.80;99.90;;;;;;4149914;28;20140;-71
2023/12/04 10:02:43;;;;;;;11.48;6.40;;;2.80;99.90;;;;;;4128073;28;20562;-71
2023/12/04 10:04:44;;;;;;;12.43;7.43;;;2.80;99.90;;;;;;4136934;28;20092;-71
2023/12/04 10:06:45;;;;;;;12.90;7.20;;;2.90;99.90;;;;;;4155390;28;20060;-71
2023/12/04 10:08:46;;;;;;;11.48;7.13;;;2.90;99.90;;;;;;4151644;28;20084;-71
2023/12/04 10:10:47;;;;;;;12.65;7.15;;;2.90;99.90;;;;;;4152712;28;20510;-71
2023/12/04 10:12:47;;;;;;;11.18;6.45;;;2.90;99.90;;;;;;4153382;28;20038;-73
2023/12/04 10:15:04;;;;;;;13.85;6.90;;;2.90;99.90;;;;;;4154281;28;20033;-72
2023/12/04 10:17:17;;;;;;;13.05;7.75;;;2.80;99.90;;;;;;4145181;28;20033;-70
2023/12/04 10:19:19;;;;;;;10.98;5.95;;;2.90;99.90;;;;;;4135146;28;20045;-73
2023/12/04 10:21:20;;;;;;;11.70;6.97;;;2.90;99.90;;;;;;4131782;28;20085;-73
2023/12/04 10:23:22;;;;;;;12.32;6.85;;;2.90;99.90;;;;;;4132413;28;20053;-74
2023/12/04 10:25:25;;;;;;;11.65;6.57;;;2.90;99.90;;;;;;4152610;28;20049;-74
2023/12/04 10:27:26;;;;;;;14.05;6.80;;;2.90;99.90;;;;;;4151560;28;20046;-74